DLH967 EGNT-EDDF
Flight info
| Callsign | DLH967 |
|---|---|
| Flight time | 1h 20m |
| Altitude | 37000 |
| Route | GIRLI3X GIRLI DCT ERKIT L602 OTR L90 DOLAS DCT NAVPI DCT NOLRU DCT DIXAT DIXAT1A |
| Aircraft | A319/M-SDE3FGHIRWY/LB1 |
Departure
| Time | 2026-04-18 10:20 |
|---|---|
| Airport | Newcastle International Airport (EGNT) |
Arrival
| Time | 2026-04-18 11:41 |
|---|---|
| Airport | Frankfurt Main Airport (EDDF) |
| Time | Latitude | Longitude | Altitude | Speed | Heading |
|---|---|---|---|---|---|
| 2026-04-18 09:50 | 55.03660 | -1.70711 | 268 ft | 0 kts | 4° |
| 2026-04-18 10:10 | 55.03652 | -1.70712 | 267 ft | 3 kts | 4° |
| 2026-04-18 10:10 | 55.03629 | -1.70715 | 267 ft | 3 kts | 4° |
| 2026-04-18 10:11 | 55.03607 | -1.70722 | 267 ft | 3 kts | 31° |
| 2026-04-18 10:11 | 55.03596 | -1.70745 | 267 ft | 3 kts | 93° |
| 2026-04-18 10:11 | 55.03597 | -1.70776 | 267 ft | 2 kts | 94° |
| 2026-04-18 10:11 | 55.03597 | -1.70778 | 267 ft | 0 kts | 94° |
| 2026-04-18 10:14 | 55.03597 | -1.70775 | 267 ft | 1 kts | 94° |
| 2026-04-18 10:14 | 55.03594 | -1.70716 | 267 ft | 9 kts | 94° |
| 2026-04-18 10:14 | 55.03591 | -1.70587 | 267 ft | 11 kts | 87° |
| 2026-04-18 10:14 | 55.03616 | -1.70460 | 267 ft | 12 kts | 40° |
| 2026-04-18 10:15 | 55.03695 | -1.70434 | 267 ft | 12 kts | 4° |
| 2026-04-18 10:15 | 55.03773 | -1.70406 | 267 ft | 12 kts | 43° |
| 2026-04-18 10:15 | 55.03778 | -1.70255 | 264 ft | 16 kts | 94° |
| 2026-04-18 10:15 | 55.03774 | -1.70031 | 261 ft | 20 kts | 88° |
| 2026-04-18 10:16 | 55.03790 | -1.69786 | 259 ft | 21 kts | 79° |
| 2026-04-18 10:16 | 55.03829 | -1.69535 | 256 ft | 22 kts | 70° |
| 2026-04-18 10:16 | 55.03893 | -1.69287 | 254 ft | 23 kts | 65° |
| 2026-04-18 10:16 | 55.03961 | -1.69031 | 252 ft | 24 kts | 65° |
| 2026-04-18 10:17 | 55.04030 | -1.68769 | 250 ft | 24 kts | 65° |
| 2026-04-18 10:17 | 55.04101 | -1.68503 | 248 ft | 24 kts | 65° |
| 2026-04-18 10:17 | 55.04172 | -1.68233 | 248 ft | 24 kts | 65° |
| 2026-04-18 10:17 | 55.04244 | -1.67964 | 247 ft | 24 kts | 65° |
| 2026-04-18 10:18 | 55.04310 | -1.67714 | 245 ft | 20 kts | 65° |
| 2026-04-18 10:18 | 55.04331 | -1.67524 | 242 ft | 16 kts | 94° |
| 2026-04-18 10:18 | 55.04314 | -1.67396 | 241 ft | 8 kts | 125° |
| 2026-04-18 10:18 | 55.04261 | -1.67362 | 241 ft | 8 kts | 173° |
| 2026-04-18 10:19 | 55.04213 | -1.67392 | 242 ft | 7 kts | 237° |
| 2026-04-18 10:19 | 55.04196 | -1.67458 | 243 ft | 0 kts | 245° |
| 2026-04-18 10:20 | 55.04160 | -1.67595 | 245 ft | 42 kts | 245° |
| 2026-04-18 10:20 | 55.03930 | -1.68463 | 249 ft | 112 kts | 245° |
| 2026-04-18 10:20 | 55.03546 | -1.69922 | 546 ft | 137 kts | 248° |
| 2026-04-18 10:20 | 55.03147 | -1.71423 | 1224 ft | 136 kts | 245° |
| 2026-04-18 10:21 | 55.02738 | -1.72955 | 1807 ft | 147 kts | 246° |
| 2026-04-18 10:21 | 55.02279 | -1.74643 | 2371 ft | 158 kts | 244° |
| 2026-04-18 10:21 | 55.01387 | -1.75935 | 2831 ft | 191 kts | 204° |
| 2026-04-18 10:21 | 54.99975 | -1.76299 | 3172 ft | 221 kts | 194° |
| 2026-04-18 10:22 | 54.98420 | -1.76989 | 3652 ft | 241 kts | 204° |
| 2026-04-18 10:22 | 54.96814 | -1.78057 | 4464 ft | 250 kts | 207° |
| 2026-04-18 10:22 | 54.95190 | -1.79232 | 5431 ft | 255 kts | 207° |
| 2026-04-18 10:22 | 54.93538 | -1.80431 | 6411 ft | 259 kts | 208° |
| 2026-04-18 10:23 | 54.91857 | -1.81636 | 7290 ft | 265 kts | 207° |
| 2026-04-18 10:23 | 54.90130 | -1.82851 | 8141 ft | 269 kts | 207° |
| 2026-04-18 10:23 | 54.88380 | -1.84062 | 9113 ft | 272 kts | 206° |
| 2026-04-18 10:23 | 54.86601 | -1.85283 | 10050 ft | 277 kts | 206° |
| 2026-04-18 10:24 | 54.84786 | -1.86523 | 10736 ft | 290 kts | 205° |
| 2026-04-18 10:24 | 54.82791 | -1.87544 | 11050 ft | 318 kts | 193° |
| 2026-04-18 10:24 | 54.80500 | -1.87455 | 11537 ft | 340 kts | 172° |
| 2026-04-18 10:24 | 54.78223 | -1.86058 | 12295 ft | 352 kts | 158° |
| 2026-04-18 10:25 | 54.75994 | -1.84253 | 13137 ft | 355 kts | 158° |
| 2026-04-18 10:25 | 54.73747 | -1.82438 | 13968 ft | 358 kts | 158° |
| 2026-04-18 10:25 | 54.71498 | -1.80503 | 14697 ft | 364 kts | 152° |
| 2026-04-18 10:25 | 54.69441 | -1.77890 | 15411 ft | 370 kts | 142° |
| 2026-04-18 10:26 | 54.67469 | -1.75002 | 16119 ft | 374 kts | 142° |
| 2026-04-18 10:26 | 54.65460 | -1.72072 | 16809 ft | 379 kts | 142° |
| 2026-04-18 10:26 | 54.63431 | -1.69122 | 17516 ft | 383 kts | 142° |
| 2026-04-18 10:26 | 54.61407 | -1.66181 | 18221 ft | 387 kts | 142° |
| 2026-04-18 10:27 | 54.59335 | -1.63174 | 18849 ft | 391 kts | 142° |
| 2026-04-18 10:27 | 54.57245 | -1.60144 | 19470 ft | 394 kts | 143° |
| 2026-04-18 10:27 | 54.55143 | -1.57108 | 20170 ft | 395 kts | 144° |
| 2026-04-18 10:27 | 54.53028 | -1.54061 | 20822 ft | 398 kts | 144° |
| 2026-04-18 10:28 | 54.50896 | -1.50988 | 21458 ft | 401 kts | 144° |
| 2026-04-18 10:28 | 54.48752 | -1.47895 | 22052 ft | 404 kts | 145° |
| 2026-04-18 10:28 | 54.46582 | -1.44768 | 22624 ft | 408 kts | 145° |
| 2026-04-18 10:28 | 54.44399 | -1.41625 | 23173 ft | 411 kts | 145° |
| 2026-04-18 10:29 | 54.42944 | -1.39534 | 23553 ft | 414 kts | 145° |
| 2026-04-18 10:29 | 54.40723 | -1.36351 | 24033 ft | 417 kts | 146° |
| 2026-04-18 10:29 | 54.38484 | -1.33150 | 24485 ft | 420 kts | 146° |
| 2026-04-18 10:29 | 54.36229 | -1.29931 | 24924 ft | 422 kts | 146° |
| 2026-04-18 10:30 | 54.33965 | -1.26705 | 25398 ft | 425 kts | 146° |
| 2026-04-18 10:30 | 54.31678 | -1.23450 | 25837 ft | 428 kts | 146° |
| 2026-04-18 10:30 | 54.29382 | -1.20188 | 26253 ft | 430 kts | 146° |
| 2026-04-18 10:30 | 54.27063 | -1.16901 | 26672 ft | 433 kts | 146° |
| 2026-04-18 10:31 | 54.24734 | -1.13603 | 27081 ft | 436 kts | 146° |
| 2026-04-18 10:31 | 54.22389 | -1.10280 | 27445 ft | 439 kts | 147° |
| 2026-04-18 10:31 | 54.20058 | -1.06976 | 27835 ft | 442 kts | 147° |
| 2026-04-18 10:31 | 54.17688 | -1.03621 | 28258 ft | 442 kts | 147° |
| 2026-04-18 10:32 | 54.15310 | -1.00260 | 28737 ft | 443 kts | 147° |
| 2026-04-18 10:32 | 54.12934 | -0.96910 | 29129 ft | 445 kts | 147° |
| 2026-04-18 10:32 | 54.10536 | -0.93543 | 29496 ft | 447 kts | 147° |
| 2026-04-18 10:32 | 54.08123 | -0.90171 | 29857 ft | 450 kts | 147° |
| 2026-04-18 10:33 | 54.05694 | -0.86786 | 30198 ft | 452 kts | 147° |
| 2026-04-18 10:33 | 54.03311 | -0.83231 | 30483 ft | 460 kts | 141° |
| 2026-04-18 10:33 | 54.01207 | -0.79054 | 30754 ft | 470 kts | 133° |
| 2026-04-18 10:33 | 53.99244 | -0.74670 | 30992 ft | 472 kts | 133° |
| 2026-04-18 10:34 | 53.97239 | -0.70216 | 31255 ft | 475 kts | 134° |
| 2026-04-18 10:34 | 53.95229 | -0.65768 | 31602 ft | 475 kts | 134° |
| 2026-04-18 10:34 | 53.93219 | -0.61328 | 31967 ft | 474 kts | 134° |
| 2026-04-18 10:34 | 53.91205 | -0.56898 | 32323 ft | 474 kts | 134° |
| 2026-04-18 10:35 | 53.89186 | -0.52470 | 32680 ft | 474 kts | 134° |
| 2026-04-18 10:35 | 53.87168 | -0.48057 | 33037 ft | 474 kts | 134° |
| 2026-04-18 10:35 | 53.85147 | -0.43648 | 33398 ft | 474 kts | 134° |
| 2026-04-18 10:35 | 53.83126 | -0.39241 | 33755 ft | 473 kts | 134° |
| 2026-04-18 10:36 | 53.81102 | -0.34832 | 34116 ft | 473 kts | 134° |
| 2026-04-18 10:36 | 53.79076 | -0.30417 | 34425 ft | 473 kts | 133° |
| 2026-04-18 10:36 | 53.77059 | -0.26026 | 34727 ft | 473 kts | 133° |
| 2026-04-18 10:36 | 53.75037 | -0.21639 | 35022 ft | 473 kts | 133° |
| 2026-04-18 10:37 | 53.73042 | -0.17327 | 35274 ft | 472 kts | 134° |
| 2026-04-18 10:37 | 53.70987 | -0.13012 | 35545 ft | 469 kts | 138° |
| 2026-04-18 10:37 | 53.68654 | -0.09220 | 35809 ft | 462 kts | 147° |
| 2026-04-18 10:37 | 53.66064 | -0.06081 | 36070 ft | 457 kts | 152° |
| 2026-04-18 10:38 | 53.63427 | -0.03110 | 36336 ft | 457 kts | 152° |
| 2026-04-18 10:38 | 53.60788 | -0.00120 | 36575 ft | 457 kts | 152° |
| 2026-04-18 10:38 | 53.58152 | 0.02879 | 36818 ft | 456 kts | 152° |
| 2026-04-18 10:38 | 53.55524 | 0.05872 | 37050 ft | 456 kts | 152° |
| 2026-04-18 10:39 | 53.52922 | 0.08953 | 37160 ft | 460 kts | 147° |
| 2026-04-18 10:39 | 53.48267 | 0.16492 | 37174 ft | 466 kts | 140° |
| 2026-04-18 10:40 | 53.43719 | 0.24159 | 37183 ft | 466 kts | 141° |
| 2026-04-18 10:40 | 53.39129 | 0.31856 | 37178 ft | 466 kts | 141° |
| 2026-04-18 10:41 | 53.34539 | 0.39533 | 37177 ft | 466 kts | 141° |
| 2026-04-18 10:41 | 53.29947 | 0.47206 | 37188 ft | 466 kts | 141° |
| 2026-04-18 10:42 | 53.25348 | 0.54842 | 37179 ft | 466 kts | 141° |
| 2026-04-18 10:42 | 53.20777 | 0.62421 | 37179 ft | 466 kts | 141° |
| 2026-04-18 10:43 | 53.16178 | 0.70040 | 37192 ft | 466 kts | 141° |
| 2026-04-18 10:43 | 53.11567 | 0.77650 | 37197 ft | 466 kts | 141° |
| 2026-04-18 10:44 | 53.06952 | 0.85226 | 37207 ft | 466 kts | 141° |
| 2026-04-18 10:44 | 53.02328 | 0.92784 | 37215 ft | 466 kts | 141° |
| 2026-04-18 10:45 | 52.98087 | 1.01027 | 37194 ft | 476 kts | 126° |
| 2026-04-18 10:45 | 52.95373 | 1.11167 | 37194 ft | 484 kts | 115° |
| 2026-04-18 10:46 | 52.93017 | 1.21625 | 37207 ft | 484 kts | 115° |
| 2026-04-18 10:46 | 52.90652 | 1.31991 | 37212 ft | 483 kts | 115° |
| 2026-04-18 10:47 | 52.88261 | 1.42421 | 37214 ft | 483 kts | 115° |
| 2026-04-18 10:47 | 52.85874 | 1.52814 | 37191 ft | 483 kts | 115° |
| 2026-04-18 10:48 | 52.83480 | 1.63204 | 37209 ft | 483 kts | 115° |
| 2026-04-18 10:48 | 52.81078 | 1.73558 | 37217 ft | 482 kts | 115° |
| 2026-04-18 10:49 | 52.78664 | 1.83906 | 37221 ft | 482 kts | 115° |
| 2026-04-18 10:49 | 52.76261 | 1.94179 | 37221 ft | 482 kts | 116° |
| 2026-04-18 10:50 | 52.73840 | 2.04496 | 37188 ft | 482 kts | 116° |
| 2026-04-18 10:50 | 52.71405 | 2.14796 | 37212 ft | 481 kts | 116° |
| 2026-04-18 10:51 | 52.68955 | 2.25091 | 37223 ft | 481 kts | 116° |
| 2026-04-18 10:51 | 52.66516 | 2.35288 | 37224 ft | 480 kts | 116° |
| 2026-04-18 10:52 | 52.64056 | 2.45528 | 37227 ft | 480 kts | 116° |
| 2026-04-18 10:52 | 52.61596 | 2.55742 | 37214 ft | 480 kts | 116° |
| 2026-04-18 10:53 | 52.59126 | 2.65941 | 37224 ft | 480 kts | 116° |
| 2026-04-18 10:53 | 52.56646 | 2.76124 | 37230 ft | 479 kts | 116° |
| 2026-04-18 10:54 | 52.54125 | 2.86280 | 37234 ft | 478 kts | 118° |
| 2026-04-18 10:54 | 52.51344 | 2.96189 | 37235 ft | 476 kts | 121° |
| 2026-04-18 10:55 | 52.48422 | 3.05874 | 37197 ft | 476 kts | 121° |
| 2026-04-18 10:55 | 52.45507 | 3.15622 | 37208 ft | 476 kts | 121° |
| 2026-04-18 10:56 | 52.42640 | 3.25411 | 37216 ft | 476 kts | 121° |
| 2026-04-18 10:56 | 52.39775 | 3.35213 | 37221 ft | 476 kts | 121° |
| 2026-04-18 10:57 | 52.36890 | 3.44981 | 37223 ft | 476 kts | 121° |
| 2026-04-18 10:57 | 52.33991 | 3.54723 | 37210 ft | 476 kts | 121° |
| 2026-04-18 10:58 | 52.31110 | 3.64385 | 37222 ft | 475 kts | 121° |
| 2026-04-18 10:58 | 52.28206 | 3.74094 | 37225 ft | 475 kts | 121° |
| 2026-04-18 10:59 | 52.25294 | 3.83784 | 37229 ft | 475 kts | 121° |
| 2026-04-18 10:59 | 52.22371 | 3.93470 | 37230 ft | 475 kts | 121° |
| 2026-04-18 11:00 | 52.19450 | 4.03123 | 37197 ft | 475 kts | 122° |
| 2026-04-18 11:00 | 52.16513 | 4.12773 | 37214 ft | 475 kts | 122° |
| 2026-04-18 11:01 | 52.13567 | 4.22412 | 37219 ft | 475 kts | 122° |
| 2026-04-18 11:01 | 52.10610 | 4.32051 | 37225 ft | 475 kts | 122° |
| 2026-04-18 11:02 | 52.06175 | 4.46429 | 37224 ft | 475 kts | 122° |
| 2026-04-18 11:02 | 52.03206 | 4.56018 | 37218 ft | 475 kts | 122° |
| 2026-04-18 11:03 | 52.00233 | 4.65594 | 37227 ft | 475 kts | 122° |
| 2026-04-18 11:03 | 51.97248 | 4.75169 | 37218 ft | 475 kts | 122° |
| 2026-04-18 11:04 | 51.94249 | 4.84716 | 37192 ft | 475 kts | 123° |
| 2026-04-18 11:04 | 51.91264 | 4.94199 | 37201 ft | 475 kts | 122° |
| 2026-04-18 11:05 | 51.88256 | 5.03729 | 37207 ft | 475 kts | 122° |
| 2026-04-18 11:05 | 51.85238 | 5.13248 | 37214 ft | 475 kts | 122° |
| 2026-04-18 11:06 | 51.82216 | 5.22752 | 37220 ft | 475 kts | 123° |
| 2026-04-18 11:06 | 51.79187 | 5.32240 | 37214 ft | 475 kts | 123° |
| 2026-04-18 11:07 | 51.76151 | 5.41699 | 37210 ft | 474 kts | 123° |
| 2026-04-18 11:07 | 51.73104 | 5.51157 | 37213 ft | 474 kts | 123° |
| 2026-04-18 11:08 | 51.70056 | 5.60589 | 37214 ft | 474 kts | 123° |
| 2026-04-18 11:08 | 51.66997 | 5.70008 | 37206 ft | 474 kts | 123° |
| 2026-04-18 11:09 | 51.63929 | 5.79411 | 37210 ft | 474 kts | 123° |
| 2026-04-18 11:09 | 51.60852 | 5.88813 | 37193 ft | 475 kts | 123° |
| 2026-04-18 11:10 | 51.57787 | 5.98159 | 37193 ft | 474 kts | 123° |
| 2026-04-18 11:10 | 51.54707 | 6.07526 | 37203 ft | 474 kts | 123° |
| 2026-04-18 11:11 | 51.51615 | 6.16866 | 37208 ft | 473 kts | 123° |
| 2026-04-18 11:11 | 51.48856 | 6.26502 | 37182 ft | 477 kts | 116° |
| 2026-04-18 11:12 | 51.46847 | 6.34749 | 37217 ft | 477 kts | 116° |
| 2026-04-18 11:12 | 51.45639 | 6.39684 | 37027 ft | 474 kts | 116° |
| 2026-04-18 11:12 | 51.44437 | 6.44575 | 36768 ft | 470 kts | 116° |
| 2026-04-18 11:13 | 51.43237 | 6.49442 | 36504 ft | 469 kts | 116° |
| 2026-04-18 11:13 | 51.42035 | 6.54290 | 36240 ft | 469 kts | 116° |
| 2026-04-18 11:13 | 51.40827 | 6.59162 | 35994 ft | 469 kts | 116° |
| 2026-04-18 11:13 | 51.39625 | 6.64015 | 35745 ft | 469 kts | 117° |
| 2026-04-18 11:14 | 51.38419 | 6.68865 | 35496 ft | 469 kts | 117° |
| 2026-04-18 11:14 | 51.37219 | 6.73659 | 35208 ft | 469 kts | 116° |
| 2026-04-18 11:14 | 51.36007 | 6.78491 | 34964 ft | 468 kts | 116° |
| 2026-04-18 11:14 | 51.34791 | 6.83337 | 34371 ft | 470 kts | 117° |
| 2026-04-18 11:15 | 51.33554 | 6.88240 | 33215 ft | 478 kts | 116° |
| 2026-04-18 11:15 | 51.32306 | 6.93179 | 32496 ft | 477 kts | 116° |
| 2026-04-18 11:15 | 51.31072 | 6.98078 | 31872 ft | 473 kts | 116° |
| 2026-04-18 11:15 | 51.29848 | 7.02935 | 31234 ft | 470 kts | 116° |
| 2026-04-18 11:16 | 51.28511 | 7.07666 | 30602 ft | 463 kts | 124° |
| 2026-04-18 11:16 | 51.26744 | 7.11916 | 29919 ft | 453 kts | 134° |
| 2026-04-18 11:16 | 51.24608 | 7.15526 | 29353 ft | 441 kts | 144° |
| 2026-04-18 11:16 | 51.22248 | 7.18427 | 28790 ft | 429 kts | 152° |
| 2026-04-18 11:17 | 51.19667 | 7.20713 | 28253 ft | 420 kts | 159° |
| 2026-04-18 11:17 | 51.17062 | 7.22772 | 27707 ft | 415 kts | 159° |
| 2026-04-18 11:17 | 51.14487 | 7.24806 | 27171 ft | 411 kts | 159° |
| 2026-04-18 11:17 | 51.11935 | 7.26824 | 26625 ft | 408 kts | 159° |
| 2026-04-18 11:18 | 51.09404 | 7.28846 | 26094 ft | 405 kts | 158° |
| 2026-04-18 11:18 | 51.06906 | 7.30893 | 25591 ft | 403 kts | 158° |
| 2026-04-18 11:18 | 51.04427 | 7.32958 | 25082 ft | 401 kts | 157° |
| 2026-04-18 11:18 | 51.01953 | 7.35024 | 24590 ft | 403 kts | 157° |
| 2026-04-18 11:19 | 50.99474 | 7.37083 | 24106 ft | 401 kts | 157° |
| 2026-04-18 11:19 | 50.97002 | 7.39123 | 23587 ft | 400 kts | 157° |
| 2026-04-18 11:19 | 50.94540 | 7.41153 | 23080 ft | 397 kts | 157° |
| 2026-04-18 11:19 | 50.92092 | 7.43165 | 22601 ft | 394 kts | 157° |
| 2026-04-18 11:20 | 50.89672 | 7.45150 | 22123 ft | 391 kts | 157° |
| 2026-04-18 11:20 | 50.87249 | 7.47129 | 21641 ft | 389 kts | 157° |
| 2026-04-18 11:20 | 50.84880 | 7.49064 | 21178 ft | 387 kts | 157° |
| 2026-04-18 11:20 | 50.82501 | 7.51010 | 20710 ft | 384 kts | 157° |
| 2026-04-18 11:21 | 50.80128 | 7.52948 | 20233 ft | 382 kts | 157° |
| 2026-04-18 11:21 | 50.77770 | 7.54868 | 19774 ft | 380 kts | 157° |
| 2026-04-18 11:21 | 50.75422 | 7.56776 | 19315 ft | 378 kts | 157° |
| 2026-04-18 11:21 | 50.73080 | 7.58679 | 18861 ft | 376 kts | 156° |
| 2026-04-18 11:22 | 50.70756 | 7.60564 | 18462 ft | 374 kts | 156° |
| 2026-04-18 11:22 | 50.68445 | 7.62437 | 18055 ft | 372 kts | 156° |
| 2026-04-18 11:22 | 50.66154 | 7.64292 | 17653 ft | 369 kts | 156° |
| 2026-04-18 11:22 | 50.63906 | 7.66113 | 17216 ft | 367 kts | 156° |
| 2026-04-18 11:23 | 50.61718 | 7.68209 | 16755 ft | 369 kts | 146° |
| 2026-04-18 11:23 | 50.59850 | 7.71007 | 16447 ft | 373 kts | 133° |
| 2026-04-18 11:23 | 50.58395 | 7.74401 | 16141 ft | 375 kts | 119° |
| 2026-04-18 11:23 | 50.57336 | 7.78162 | 15840 ft | 375 kts | 115° |
| 2026-04-18 11:24 | 50.56312 | 7.81927 | 15546 ft | 374 kts | 115° |
| 2026-04-18 11:24 | 50.55284 | 7.85678 | 15236 ft | 372 kts | 115° |
| 2026-04-18 11:24 | 50.54258 | 7.89404 | 14943 ft | 370 kts | 115° |
| 2026-04-18 11:24 | 50.53234 | 7.93113 | 14648 ft | 369 kts | 115° |
| 2026-04-18 11:25 | 50.52215 | 7.96799 | 14367 ft | 367 kts | 115° |
| 2026-04-18 11:25 | 50.51199 | 8.00463 | 14076 ft | 365 kts | 115° |
| 2026-04-18 11:25 | 50.50198 | 8.04073 | 13774 ft | 364 kts | 115° |
| 2026-04-18 11:25 | 50.49186 | 8.07703 | 13445 ft | 361 kts | 115° |
| 2026-04-18 11:26 | 50.48183 | 8.11302 | 13135 ft | 359 kts | 115° |
| 2026-04-18 11:26 | 50.47192 | 8.14876 | 12821 ft | 356 kts | 115° |
| 2026-04-18 11:26 | 50.46207 | 8.18432 | 12501 ft | 353 kts | 115° |
| 2026-04-18 11:26 | 50.45230 | 8.21947 | 12202 ft | 350 kts | 115° |
| 2026-04-18 11:27 | 50.44257 | 8.25435 | 11895 ft | 347 kts | 115° |
| 2026-04-18 11:27 | 50.43290 | 8.28891 | 11593 ft | 345 kts | 115° |
| 2026-04-18 11:27 | 50.42326 | 8.32337 | 11289 ft | 343 kts | 115° |
| 2026-04-18 11:27 | 50.41368 | 8.35741 | 10988 ft | 340 kts | 115° |
| 2026-04-18 11:28 | 50.40423 | 8.39103 | 10697 ft | 334 kts | 115° |
| 2026-04-18 11:28 | 50.39499 | 8.42399 | 10451 ft | 325 kts | 115° |
| 2026-04-18 11:28 | 50.38613 | 8.45554 | 10213 ft | 317 kts | 115° |
| 2026-04-18 11:28 | 50.37730 | 8.48688 | 9958 ft | 309 kts | 116° |
| 2026-04-18 11:29 | 50.36873 | 8.51728 | 9685 ft | 302 kts | 116° |
| 2026-04-18 11:29 | 50.36033 | 8.54700 | 9420 ft | 296 kts | 116° |
| 2026-04-18 11:29 | 50.35204 | 8.57626 | 9152 ft | 292 kts | 116° |
| 2026-04-18 11:29 | 50.34381 | 8.60528 | 8891 ft | 291 kts | 116° |
| 2026-04-18 11:30 | 50.33556 | 8.63419 | 8636 ft | 290 kts | 116° |
| 2026-04-18 11:30 | 50.32735 | 8.66293 | 8382 ft | 289 kts | 116° |
| 2026-04-18 11:30 | 50.31916 | 8.69160 | 8189 ft | 288 kts | 116° |
| 2026-04-18 11:30 | 50.31100 | 8.72020 | 8015 ft | 288 kts | 116° |
| 2026-04-18 11:31 | 50.30284 | 8.74879 | 7833 ft | 287 kts | 116° |
| 2026-04-18 11:31 | 50.29483 | 8.77694 | 7649 ft | 276 kts | 116° |
| 2026-04-18 11:31 | 50.28740 | 8.80308 | 7477 ft | 259 kts | 116° |
| 2026-04-18 11:31 | 50.28017 | 8.82842 | 7313 ft | 253 kts | 116° |
| 2026-04-18 11:32 | 50.27296 | 8.85346 | 7049 ft | 251 kts | 117° |
| 2026-04-18 11:32 | 50.26578 | 8.87822 | 6730 ft | 249 kts | 117° |
| 2026-04-18 11:32 | 50.25864 | 8.90285 | 6402 ft | 248 kts | 117° |
| 2026-04-18 11:32 | 50.25150 | 8.92738 | 6066 ft | 247 kts | 117° |
| 2026-04-18 11:33 | 50.24428 | 8.95179 | 5733 ft | 247 kts | 117° |
| 2026-04-18 11:33 | 50.23601 | 8.97520 | 5398 ft | 244 kts | 133° |
| 2026-04-18 11:33 | 50.22238 | 8.99015 | 5076 ft | 239 kts | 159° |
| 2026-04-18 11:33 | 50.20702 | 8.99913 | 4885 ft | 239 kts | 163° |
| 2026-04-18 11:34 | 50.19103 | 9.00743 | 4693 ft | 239 kts | 167° |
| 2026-04-18 11:34 | 50.17473 | 9.01060 | 4519 ft | 236 kts | 182° |
| 2026-04-18 11:34 | 50.15887 | 9.00756 | 4335 ft | 232 kts | 202° |
| 2026-04-18 11:34 | 50.14466 | 8.99543 | 4157 ft | 229 kts | 221° |
| 2026-04-18 11:35 | 50.13401 | 8.97768 | 4045 ft | 227 kts | 238° |
| 2026-04-18 11:35 | 50.12718 | 8.95568 | 4012 ft | 226 kts | 251° |
| 2026-04-18 11:35 | 50.12180 | 8.93269 | 4011 ft | 220 kts | 251° |
| 2026-04-18 11:35 | 50.11673 | 8.91102 | 4016 ft | 206 kts | 251° |
| 2026-04-18 11:36 | 50.11195 | 8.89066 | 4042 ft | 192 kts | 251° |
| 2026-04-18 11:36 | 50.10744 | 8.87149 | 4009 ft | 186 kts | 251° |
| 2026-04-18 11:36 | 50.10312 | 8.85307 | 3870 ft | 177 kts | 251° |
| 2026-04-18 11:36 | 50.09891 | 8.83519 | 3667 ft | 175 kts | 251° |
| 2026-04-18 11:37 | 50.09473 | 8.81747 | 3453 ft | 174 kts | 251° |
| 2026-04-18 11:37 | 50.09053 | 8.79965 | 3221 ft | 177 kts | 251° |
| 2026-04-18 11:37 | 50.08635 | 8.78190 | 2991 ft | 176 kts | 251° |
| 2026-04-18 11:37 | 50.08220 | 8.76434 | 2752 ft | 165 kts | 251° |
| 2026-04-18 11:38 | 50.07841 | 8.74836 | 2516 ft | 150 kts | 251° |
| 2026-04-18 11:38 | 50.07501 | 8.73382 | 2347 ft | 139 kts | 252° |
| 2026-04-18 11:38 | 50.07180 | 8.71989 | 2134 ft | 136 kts | 253° |
| 2026-04-18 11:38 | 50.07047 | 8.70551 | 1941 ft | 134 kts | 266° |
| 2026-04-18 11:39 | 50.06920 | 8.69121 | 1778 ft | 134 kts | 259° |
| 2026-04-18 11:39 | 50.06664 | 8.67729 | 1611 ft | 134 kts | 253° |
| 2026-04-18 11:39 | 50.06355 | 8.66367 | 1427 ft | 133 kts | 251° |
| 2026-04-18 11:39 | 50.06031 | 8.65019 | 1262 ft | 133 kts | 250° |
| 2026-04-18 11:40 | 50.05699 | 8.63671 | 1073 ft | 134 kts | 250° |
| 2026-04-18 11:40 | 50.05377 | 8.62311 | 914 ft | 134 kts | 253° |
| 2026-04-18 11:40 | 50.05052 | 8.60951 | 715 ft | 134 kts | 252° |
| 2026-04-18 11:40 | 50.04732 | 8.59606 | 533 ft | 135 kts | 253° |
| 2026-04-18 11:41 | 50.04401 | 8.58242 | 380 ft | 133 kts | 253° |
| 2026-04-18 11:41 | 50.04143 | 8.57144 | 366 ft | 70 kts | 249° |
| 2026-04-18 11:41 | 50.04023 | 8.56644 | 361 ft | 44 kts | 250° |
| 2026-04-18 11:41 | 50.04005 | 8.56265 | 351 ft | 23 kts | 279° |
| 2026-04-18 11:42 | 50.04035 | 8.56132 | 353 ft | 6 kts | 311° |
| 2026-04-18 11:42 | 50.04049 | 8.56111 | 351 ft | 1 kts | 329° |
| 2026-04-18 11:42 | 50.04079 | 8.56130 | 353 ft | 8 kts | 36° |